createdAt,value
2024-03-26T00:01:39.331Z,1.70
2024-03-26T00:04:08.356Z,1.10
2024-03-26T00:06:35.453Z,1.10
2024-03-26T00:09:02.550Z,1.70
2024-03-26T00:11:29.584Z,1.20
2024-03-26T00:13:57.623Z,1.30
2024-03-26T00:16:24.655Z,1.60
2024-03-26T00:18:51.698Z,1.20
2024-03-26T00:21:21.344Z,1.30
2024-03-26T00:23:49.179Z,1.30
2024-03-26T00:26:17.065Z,0.90
2024-03-26T00:28:44.114Z,1.00
2024-03-26T00:31:11.294Z,1.10
2024-03-26T00:33:38.383Z,1.00
2024-03-26T00:36:05.588Z,1.40
2024-03-26T00:38:32.682Z,1.20
2024-03-26T00:40:59.874Z,1.30
2024-03-26T00:43:27.165Z,0.90
2024-03-26T00:45:54.230Z,0.90
2024-03-26T00:48:21.434Z,1.20
2024-03-26T00:50:48.466Z,1.50
2024-03-26T00:53:15.530Z,1.20
2024-03-26T00:55:42.567Z,1.50
2024-03-26T00:58:09.739Z,1.00
2024-03-26T01:00:39.319Z,1.30
2024-03-26T01:03:06.352Z,1.30
2024-03-26T01:05:33.398Z,1.40
2024-03-26T01:08:00.484Z,1.30
2024-03-26T01:10:27.540Z,1.30
2024-03-26T01:12:54.584Z,1.50
2024-03-26T01:15:21.731Z,0.90
2024-03-26T01:17:48.783Z,1.30
2024-03-26T01:20:16.499Z,1.10
2024-03-26T01:22:43.538Z,1.10
2024-03-26T01:25:10.571Z,1.40
2024-03-26T01:27:37.622Z,1.40
2024-03-26T01:30:05.449Z,1.10
2024-03-26T01:32:32.530Z,1.40
2024-03-26T01:34:59.637Z,1.40
2024-03-26T01:37:26.684Z,1.50
2024-03-26T01:39:53.709Z,1.40
2024-03-26T01:42:20.741Z,1.40
2024-03-26T01:44:47.812Z,1.20
2024-03-26T01:47:15.096Z,1.10
2024-03-26T01:49:42.142Z,1.30
2024-03-26T01:52:09.187Z,1.30
2024-03-26T01:54:36.225Z,1.10
2024-03-26T01:57:03.349Z,0.90
2024-03-26T01:59:30.381Z,1.00
2024-03-26T02:01:57.430Z,1.10
2024-03-26T02:04:24.546Z,1.10
2024-03-26T02:06:51.616Z,1.10
2024-03-26T02:09:18.698Z,0.90
2024-03-26T02:11:45.846Z,1.00
2024-03-26T02:14:13.000Z,1.00
2024-03-26T02:16:41.101Z,1.10
2024-03-26T02:19:08.732Z,1.20
2024-03-26T02:21:35.778Z,1.10
2024-03-26T02:24:03.184Z,0.90
2024-03-26T02:26:30.220Z,1.10
2024-03-26T02:28:57.284Z,1.60
2024-03-26T02:31:24.320Z,1.10
2024-03-26T02:33:51.364Z,1.10
2024-03-26T02:36:18.387Z,1.10
2024-03-26T02:38:45.497Z,0.90
2024-03-26T02:41:12.608Z,0.90
2024-03-26T02:43:39.855Z,1.30
2024-03-26T02:46:06.899Z,1.10
2024-03-26T02:48:33.922Z,1.00
2024-03-26T02:51:01.158Z,0.80
2024-03-26T02:53:28.554Z,0.70
2024-03-26T02:55:55.623Z,1.00
2024-03-26T02:58:22.799Z,1.10
2024-03-26T03:00:49.836Z,1.40
2024-03-26T03:03:16.901Z,1.20
2024-03-26T03:05:44.001Z,0.80
2024-03-26T03:08:11.056Z,1.00
2024-03-26T03:10:38.183Z,0.90
2024-03-26T03:13:05.267Z,1.30
2024-03-26T03:15:32.301Z,1.20
2024-03-26T03:17:59.381Z,1.60
2024-03-26T03:20:26.573Z,1.40
2024-03-26T03:22:53.632Z,0.90
2024-03-26T03:25:21.382Z,1.00
2024-03-26T03:27:48.441Z,0.90
2024-03-26T03:30:15.486Z,0.80
2024-03-26T03:32:42.541Z,1.10
2024-03-26T03:35:09.580Z,0.90
2024-03-26T03:37:37.438Z,1.10
2024-03-26T03:40:05.506Z,1.20
2024-03-26T03:42:32.548Z,1.10
2024-03-26T03:44:59.573Z,0.80
2024-03-26T03:47:26.661Z,1.00
2024-03-26T03:49:53.720Z,1.10
2024-03-26T03:52:20.780Z,1.40
2024-03-26T03:54:47.838Z,0.90
2024-03-26T03:57:14.908Z,1.00
2024-03-26T03:59:41.957Z,1.10
2024-03-26T04:02:08.991Z,0.90
2024-03-26T04:04:36.135Z,1.10
2024-03-26T04:07:03.247Z,1.00
2024-03-26T04:09:30.297Z,1.20
2024-03-26T04:11:57.353Z,1.20
2024-03-26T04:14:24.493Z,1.10
2024-03-26T04:16:51.533Z,1.90
2024-03-26T04:19:18.563Z,1.70
2024-03-26T04:21:45.606Z,1.00
2024-03-26T04:24:12.672Z,1.00
2024-03-26T04:26:39.835Z,1.00
2024-03-26T04:29:06.864Z,0.90
2024-03-26T04:31:34.235Z,1.20
2024-03-26T04:34:01.481Z,0.90
2024-03-26T04:36:29.750Z,1.20
2024-03-26T04:38:56.812Z,1.00
2024-03-26T04:41:25.015Z,1.30
2024-03-26T04:43:52.502Z,1.30
2024-03-26T04:46:19.594Z,1.30
2024-03-26T04:48:46.652Z,0.90
2024-03-26T04:51:13.693Z,1.00
2024-03-26T04:53:40.904Z,2.10
2024-03-26T04:56:08.058Z,3.10
2024-03-26T04:58:35.101Z,2.60
2024-03-26T05:01:02.149Z,2.00
2024-03-26T05:03:29.198Z,1.90
2024-03-26T05:05:56.238Z,1.80
2024-03-26T05:08:23.368Z,2.10
2024-03-26T05:10:50.736Z,2.10
2024-03-26T05:13:17.790Z,2.20
2024-03-26T05:15:44.865Z,2.10
2024-03-26T05:18:11.900Z,2.80
2024-03-26T05:20:38.938Z,3.50
2024-03-26T05:23:06.079Z,2.80
2024-03-26T05:25:33.125Z,2.30
2024-03-26T05:28:00.153Z,2.40
2024-03-26T05:30:27.200Z,2.90
2024-03-26T05:32:54.312Z,2.10
2024-03-26T05:35:21.554Z,2.10
2024-03-26T05:37:49.086Z,2.70
2024-03-26T05:40:16.656Z,2.80
2024-03-26T05:42:43.686Z,3.20
2024-03-26T05:45:10.726Z,2.30
2024-03-26T05:47:37.788Z,2.30
2024-03-26T05:50:05.936Z,2.40
2024-03-26T05:52:32.980Z,2.40
2024-03-26T05:55:00.226Z,2.80
2024-03-26T05:57:27.417Z,2.40
2024-03-26T05:59:54.521Z,2.00
2024-03-26T06:02:21.595Z,1.90
2024-03-26T06:04:48.634Z,1.90
2024-03-26T06:07:15.715Z,2.10
2024-03-26T06:09:42.777Z,2.10
2024-03-26T06:12:10.488Z,2.20
2024-03-26T06:14:37.633Z,2.00
2024-03-26T06:17:04.795Z,2.00
2024-03-26T06:19:31.848Z,1.50
2024-03-26T06:22:02.458Z,1.60
2024-03-26T06:24:29.543Z,1.70
2024-03-26T06:26:56.660Z,1.60
2024-03-26T06:29:23.858Z,1.80
2024-03-26T06:31:50.957Z,3.80
2024-03-26T06:34:18.047Z,2.40
2024-03-26T06:36:45.114Z,7.20
2024-03-26T06:39:14.499Z,2.40
2024-03-26T06:41:41.550Z,2.00
2024-03-26T06:44:08.840Z,1.70
2024-03-26T06:46:35.922Z,1.50
2024-03-26T06:49:03.058Z,1.70
2024-03-26T06:51:30.214Z,1.70
2024-03-26T06:53:57.488Z,1.40
2024-03-26T06:56:26.016Z,1.70
2024-03-26T06:58:53.081Z,1.90
2024-03-26T07:01:21.468Z,1.30
2024-03-26T07:03:48.599Z,1.30
2024-03-26T07:06:15.688Z,1.50
2024-03-26T07:08:44.999Z,1.70
2024-03-26T07:11:12.387Z,1.90
2024-03-26T07:13:39.461Z,1.80
2024-03-26T07:16:06.858Z,1.90
2024-03-26T07:18:33.959Z,2.50
2024-03-26T07:21:01.087Z,1.70
2024-03-26T07:23:28.213Z,4.00
2024-03-26T07:25:55.336Z,1.50
2024-03-26T07:28:22.461Z,1.80
2024-03-26T07:30:49.655Z,2.10
2024-03-26T07:33:16.815Z,1.60
2024-03-26T07:35:44.592Z,1.80
2024-03-26T07:38:11.797Z,1.50
2024-03-26T07:40:38.887Z,1.40
2024-03-26T07:43:13.503Z,1.40
2024-03-26T07:45:48.581Z,1.40
2024-03-26T07:48:16.319Z,1.20
2024-03-26T07:50:43.714Z,1.90
2024-03-26T07:53:10.954Z,2.40
2024-03-26T07:55:38.052Z,1.60
2024-03-26T07:58:05.307Z,1.60
2024-03-26T08:00:32.616Z,1.60
2024-03-26T08:02:59.785Z,1.10
2024-03-26T08:05:26.949Z,1.40
2024-03-26T08:07:57.157Z,1.60
2024-03-26T08:10:24.395Z,1.60
2024-03-26T08:12:51.815Z,1.80
2024-03-26T08:15:20.853Z,1.70
2024-03-26T08:17:48.575Z,1.40
2024-03-26T08:20:15.713Z,1.80
2024-03-26T08:22:42.967Z,1.50
2024-03-26T08:25:11.126Z,1.50
2024-03-26T08:27:40.628Z,1.50
2024-03-26T08:30:11.643Z,1.40
2024-03-26T08:32:39.067Z,1.60
2024-03-26T08:35:09.353Z,1.40
2024-03-26T08:37:36.550Z,1.40
2024-03-26T08:40:04.867Z,1.50
2024-03-26T08:42:31.974Z,1.20
2024-03-26T08:44:59.124Z,1.40
2024-03-26T08:47:26.315Z,1.00
2024-03-26T08:49:53.403Z,1.20
2024-03-26T08:52:20.478Z,1.40
2024-03-26T08:54:47.563Z,1.10
2024-03-26T08:57:16.260Z,0.90
2024-03-26T08:59:44.638Z,1.10
2024-03-26T09:02:11.742Z,1.00
2024-03-26T09:04:38.862Z,1.40
2024-03-26T09:07:05.939Z,1.10
2024-03-26T09:09:33.027Z,1.10
2024-03-26T09:12:00.194Z,1.80
2024-03-26T09:14:27.398Z,1.70
2024-03-26T09:16:54.491Z,1.40
2024-03-26T09:19:21.553Z,2.30
2024-03-26T09:21:48.627Z,1.60
2024-03-26T09:24:15.728Z,1.50
2024-03-26T09:26:42.805Z,2.60
2024-03-26T09:29:09.882Z,1.50
2024-03-26T09:31:36.999Z,1.50
2024-03-26T09:34:04.078Z,1.90
2024-03-26T09:36:31.267Z,1.10
2024-03-26T09:39:07.278Z,1.20
2024-03-26T09:41:37.438Z,1.10
2024-03-26T09:44:05.572Z,1.60
2024-03-26T09:46:32.658Z,1.40
2024-03-26T09:48:59.798Z,1.10
2024-03-26T09:51:27.606Z,1.30
2024-03-26T09:53:55.656Z,1.20
2024-03-26T09:56:22.781Z,1.50
2024-03-26T09:58:50.028Z,1.70
2024-03-26T10:01:17.690Z,1.10
2024-03-26T10:03:44.784Z,1.20
2024-03-26T10:06:11.896Z,1.20
2024-03-26T10:08:38.982Z,1.10
2024-03-26T10:11:06.100Z,1.20
2024-03-26T10:13:33.341Z,1.50
2024-03-26T10:16:01.145Z,1.20
2024-03-26T10:18:28.994Z,1.30
2024-03-26T10:20:56.314Z,1.40
2024-03-26T10:23:23.498Z,1.40
2024-03-26T10:25:50.858Z,1.40
2024-03-26T10:28:17.941Z,1.70
2024-03-26T10:30:45.133Z,1.40
2024-03-26T10:33:12.214Z,1.40
2024-03-26T10:35:39.309Z,1.40
2024-03-26T10:38:13.107Z,3.40
2024-03-26T10:40:59.997Z,2.50
2024-03-26T10:43:27.717Z,1.00
2024-03-26T10:46:03.250Z,1.20
2024-03-26T10:48:37.775Z,1.10
2024-03-26T10:51:06.852Z,2.40
2024-03-26T10:53:34.026Z,1.90
2024-03-26T10:56:01.094Z,2.70
2024-03-26T10:58:28.151Z,3.60
2024-03-26T11:00:56.869Z,1.00
2024-03-26T11:03:23.982Z,1.10
2024-03-26T11:05:51.049Z,1.60
2024-03-26T11:08:19.023Z,1.40
2024-03-26T11:11:03.902Z,1.20
2024-03-26T11:15:58.729Z,1.50
2024-03-26T11:18:33.642Z,1.40
2024-03-26T11:21:05.287Z,1.30
2024-03-26T11:23:33.987Z,1.80
2024-03-26T11:26:01.291Z,1.20
2024-03-26T11:28:28.575Z,1.30
2024-03-26T11:30:56.654Z,1.00
2024-03-26T11:33:25.418Z,1.00
2024-03-26T11:35:53.126Z,1.40
2024-03-26T11:38:20.287Z,1.10
2024-03-26T11:40:50.671Z,1.20
2024-03-26T11:43:18.306Z,1.40
2024-03-26T11:45:45.390Z,1.60
2024-03-26T11:48:16.490Z,1.40
2024-03-26T11:50:44.760Z,1.90
2024-03-26T11:53:11.873Z,1.70
2024-03-26T11:55:39.767Z,1.40
2024-03-26T11:58:08.589Z,1.30
2024-03-26T12:00:39.988Z,1.10
2024-03-26T12:03:10.922Z,2.10
2024-03-26T12:05:38.028Z,2.30
2024-03-26T12:08:05.283Z,2.10
2024-03-26T12:10:32.478Z,1.20
2024-03-26T12:12:59.600Z,1.60
2024-03-26T12:15:26.773Z,1.30
2024-03-26T12:17:53.907Z,2.00
2024-03-26T12:20:21.044Z,1.40
2024-03-26T12:22:48.931Z,1.20
2024-03-26T12:25:16.068Z,1.40
2024-03-26T12:27:46.424Z,2.20
2024-03-26T12:30:13.950Z,1.30
2024-03-26T12:32:41.078Z,1.40
2024-03-26T12:35:09.722Z,1.40
2024-03-26T12:37:40.187Z,1.30
2024-03-26T12:40:08.193Z,1.30
2024-03-26T12:42:36.633Z,1.10
2024-03-26T12:45:04.377Z,1.70
2024-03-26T12:47:31.530Z,1.70
2024-03-26T12:50:01.512Z,1.80
2024-03-26T12:52:31.229Z,1.50
2024-03-26T12:54:58.324Z,1.50
2024-03-26T12:57:25.379Z,1.50
2024-03-26T12:59:52.489Z,1.40
2024-03-26T13:02:19.557Z,1.20
2024-03-26T13:04:46.626Z,1.40
2024-03-26T13:07:13.708Z,1.40
2024-03-26T13:09:40.760Z,1.20
2024-03-26T13:12:08.153Z,2.20
2024-03-26T13:14:35.555Z,1.10
2024-03-26T13:17:02.766Z,1.50
2024-03-26T13:19:32.574Z,1.00
2024-03-26T13:21:59.637Z,1.70
2024-03-26T13:24:26.688Z,1.20
2024-03-26T13:26:53.799Z,1.40
2024-03-26T13:29:20.868Z,1.80
2024-03-26T13:31:47.930Z,2.10
2024-03-26T13:34:14.976Z,1.80
2024-03-26T13:36:42.905Z,1.80
2024-03-26T13:39:10.430Z,1.40
2024-03-26T13:41:37.593Z,1.30
2024-03-26T13:44:04.769Z,1.10
2024-03-26T13:46:32.136Z,1.40
2024-03-26T13:48:59.229Z,1.50
2024-03-26T13:51:27.338Z,1.10
2024-03-26T13:53:54.413Z,1.60
2024-03-26T13:56:21.473Z,1.10
2024-03-26T13:58:48.530Z,1.30
2024-03-26T14:01:15.590Z,1.50
2024-03-26T14:03:42.654Z,1.30
2024-03-26T14:06:09.759Z,0.90
2024-03-26T14:08:37.402Z,5.80
2024-03-26T14:11:04.975Z,2.70
2024-03-26T14:13:32.035Z,1.40
2024-03-26T14:15:59.128Z,1.30
2024-03-26T14:18:26.202Z,1.30
2024-03-26T14:20:53.285Z,3.30
2024-03-26T14:23:20.337Z,1.90
2024-03-26T14:25:47.436Z,1.40
2024-03-26T14:28:14.772Z,1.70
2024-03-26T14:30:41.826Z,1.20
2024-03-26T14:33:09.727Z,1.10
2024-03-26T14:35:36.813Z,1.30
2024-03-26T14:38:04.027Z,1.50
2024-03-26T14:40:31.268Z,2.00
2024-03-26T14:42:58.340Z,2.00
2024-03-26T14:45:25.401Z,2.50
2024-03-26T14:47:53.005Z,1.80
2024-03-26T14:50:20.063Z,1.60
2024-03-26T14:52:47.194Z,1.20
2024-03-26T14:55:14.369Z,1.30
2024-03-26T14:57:42.099Z,1.90
2024-03-26T15:00:12.698Z,1.70
2024-03-26T15:02:39.751Z,1.70
2024-03-26T15:05:09.314Z,1.80
2024-03-26T15:07:36.379Z,1.70
2024-03-26T15:10:05.054Z,1.60
2024-03-26T15:12:32.127Z,1.50
2024-03-26T15:14:59.214Z,1.20
2024-03-26T15:17:26.425Z,1.50
2024-03-26T15:19:53.510Z,1.30
2024-03-26T15:22:20.599Z,1.90
2024-03-26T15:24:47.935Z,1.60
2024-03-26T15:27:14.988Z,2.70
2024-03-26T15:30:00.869Z,1.50
2024-03-26T15:32:28.322Z,2.10
2024-03-26T15:34:56.393Z,2.20
2024-03-26T15:37:23.464Z,2.00
2024-03-26T15:39:50.517Z,2.40
2024-03-26T15:42:17.924Z,1.80
2024-03-26T15:44:45.039Z,2.40
2024-03-26T15:47:13.271Z,2.40
2024-03-26T15:49:40.496Z,1.70
2024-03-26T15:52:07.947Z,1.70
2024-03-26T15:54:35.012Z,1.80
2024-03-26T15:57:02.088Z,2.00
2024-03-26T15:59:29.211Z,8.60
2024-03-26T16:01:56.323Z,4.70
2024-03-26T16:04:24.639Z,3.10
2024-03-26T16:06:52.320Z,3.40
2024-03-26T16:09:22.191Z,6.40
2024-03-26T16:11:49.267Z,8.40
2024-03-26T16:14:16.983Z,6.60
2024-03-26T16:16:44.555Z,5.20
2024-03-26T16:19:13.935Z,16.60
2024-03-26T16:21:42.341Z,23.50
2024-03-26T16:24:09.572Z,10.70
2024-03-26T16:26:36.806Z,11.00
2024-03-26T16:29:05.231Z,15.90
2024-03-26T16:31:32.294Z,6.40
2024-03-26T16:34:00.138Z,5.60
2024-03-26T16:36:28.211Z,8.10
2024-03-26T16:38:55.333Z,6.70
2024-03-26T16:41:36.502Z,5.30
2024-03-26T16:44:03.710Z,4.90
2024-03-26T16:46:30.929Z,5.20
2024-03-26T16:48:58.056Z,4.30
2024-03-26T16:51:25.561Z,4.40
2024-03-26T16:53:52.706Z,5.00
2024-03-26T16:56:19.823Z,4.90
2024-03-26T16:58:49.976Z,5.00
2024-03-26T17:01:17.051Z,5.70
2024-03-26T17:03:44.179Z,7.10
2024-03-26T17:06:14.056Z,19.00
2024-03-26T17:08:41.449Z,10.20
2024-03-26T17:11:08.691Z,9.80
2024-03-26T17:13:35.788Z,15.30
2024-03-26T17:16:03.040Z,13.50
2024-03-26T17:18:31.149Z,9.70
2024-03-26T17:20:58.703Z,8.40
2024-03-26T17:23:26.045Z,6.90
2024-03-26T17:25:53.410Z,6.40
2024-03-26T17:28:20.692Z,7.00
2024-03-26T17:30:47.949Z,5.70
2024-03-26T17:33:16.522Z,6.00
2024-03-26T17:35:44.561Z,6.00
2024-03-26T17:38:12.128Z,5.80
2024-03-26T17:40:42.341Z,5.30
2024-03-26T17:43:09.701Z,6.40
2024-03-26T17:45:36.804Z,6.80
2024-03-26T17:48:04.613Z,7.20
2024-03-26T17:50:34.627Z,6.70
2024-03-26T17:53:01.876Z,6.60
2024-03-26T17:55:29.234Z,5.60
2024-03-26T17:57:56.485Z,8.80
2024-03-26T18:00:23.838Z,8.00
2024-03-26T18:02:52.326Z,8.90
2024-03-26T18:05:19.992Z,11.90
2024-03-26T18:07:47.257Z,12.80
2024-03-26T18:10:14.408Z,13.30
2024-03-26T18:12:42.141Z,13.30
2024-03-26T18:15:10.620Z,13.40
2024-03-26T18:17:38.001Z,16.80
2024-03-26T18:20:06.448Z,19.90
2024-03-26T18:22:33.514Z,13.10
2024-03-26T18:25:01.472Z,20.70
2024-03-26T18:27:28.686Z,30.80
2024-03-26T18:29:55.962Z,31.40
2024-03-26T18:32:23.036Z,27.50
2024-03-26T18:34:51.072Z,23.40
2024-03-26T18:37:18.155Z,23.60
2024-03-26T18:39:45.210Z,19.80
2024-03-26T18:42:12.519Z,16.50
2024-03-26T18:44:39.927Z,17.50
2024-03-26T18:47:06.990Z,17.70
2024-03-26T18:49:34.055Z,16.70
2024-03-26T18:52:01.130Z,17.90
2024-03-26T18:54:28.534Z,17.20
2024-03-26T18:56:55.629Z,17.50
2024-03-26T18:59:24.302Z,17.30
2024-03-26T19:01:51.462Z,20.20
2024-03-26T19:04:18.631Z,24.20
2024-03-26T19:06:45.710Z,24.40
2024-03-26T19:09:13.577Z,28.20
2024-03-26T19:11:40.723Z,18.40
2024-03-26T19:14:08.209Z,16.40
2024-03-26T19:16:35.601Z,12.90
2024-03-26T19:19:02.940Z,30.60
2024-03-26T19:21:30.000Z,12.70
2024-03-26T19:23:57.088Z,10.50
2024-03-26T19:26:24.141Z,12.80
2024-03-26T19:28:51.208Z,12.20
2024-03-26T19:31:18.459Z,12.40
2024-03-26T19:33:46.008Z,12.40
2024-03-26T19:36:15.531Z,13.00
2024-03-26T19:38:42.616Z,13.00
2024-03-26T19:41:09.807Z,13.30
2024-03-26T19:43:39.804Z,13.20
2024-03-26T19:46:08.077Z,12.50
2024-03-26T19:48:36.240Z,14.10
2024-03-26T19:51:07.114Z,14.60
2024-03-26T19:53:34.527Z,14.50
2024-03-26T19:56:07.108Z,17.80
2024-03-26T19:58:34.448Z,26.60
2024-03-26T20:01:02.349Z,31.70
2024-03-26T20:03:29.877Z,32.50
2024-03-26T20:06:01.596Z,34.10
2024-03-26T20:08:28.773Z,34.30
2024-03-26T20:10:56.599Z,33.80
2024-03-26T20:13:23.796Z,34.30
2024-03-26T20:15:53.963Z,34.80
2024-03-26T20:18:21.164Z,36.80
2024-03-26T20:20:56.105Z,37.30
2024-03-26T20:23:23.740Z,42.90
2024-03-26T20:26:04.988Z,45.30
2024-03-26T20:28:32.363Z,44.00
2024-03-26T20:31:11.984Z,41.00
2024-03-26T20:33:40.707Z,41.80
2024-03-26T20:36:08.389Z,42.30
2024-03-26T20:38:35.472Z,39.70
2024-03-26T20:41:02.994Z,43.50
2024-03-26T20:43:30.774Z,42.60
2024-03-26T20:45:57.972Z,46.30
2024-03-26T20:48:25.182Z,52.30
2024-03-26T20:50:52.278Z,54.00
2024-03-26T20:53:20.579Z,56.20
2024-03-26T20:55:48.747Z,61.20
2024-03-26T20:58:16.000Z,305.30
2024-03-26T21:00:43.292Z,206.00
2024-03-26T21:03:10.540Z,173.50
2024-03-26T21:05:37.617Z,207.60
2024-03-26T21:08:05.420Z,238.00
2024-03-26T21:10:32.661Z,184.50
2024-03-26T21:12:59.749Z,195.90
2024-03-26T21:15:29.331Z,198.70
2024-03-26T21:17:59.910Z,196.10
2024-03-26T21:20:27.480Z,189.10
2024-03-26T21:22:55.025Z,173.70
2024-03-26T21:25:23.002Z,159.20
2024-03-26T21:27:58.013Z,143.30
2024-03-26T21:30:26.155Z,174.00
2024-03-26T21:32:53.295Z,181.60
2024-03-26T21:35:20.371Z,179.30
2024-03-26T21:37:47.478Z,166.90
2024-03-26T21:40:16.959Z,164.00
2024-03-26T21:42:44.058Z,202.60
2024-03-26T21:45:11.175Z,302.00
2024-03-26T21:47:38.350Z,214.80
2024-03-26T21:50:06.395Z,165.70
2024-03-26T21:52:33.979Z,160.90
2024-03-26T21:55:45.122Z,166.40
2024-03-26T22:37:48.124Z,98.10
2024-03-26T22:55:08.405Z,107.50
2024-03-26T23:37:13.314Z,86.30
